createdAt,value
2019-02-19T00:05:08.916Z,95808.00
2019-02-19T00:10:38.170Z,95807.00
2019-02-19T00:16:07.441Z,95799.00
2019-02-19T00:21:36.706Z,95809.00
2019-02-19T00:27:05.960Z,95806.00
2019-02-19T00:32:35.281Z,95815.00
2019-02-19T00:38:06.296Z,95810.00
2019-02-19T00:43:35.597Z,95806.00
2019-02-19T00:49:04.939Z,95816.00
2019-02-19T00:54:34.212Z,95813.00
2019-02-19T01:00:04.317Z,95813.00
2019-02-19T01:05:33.599Z,95822.00
2019-02-19T01:11:02.858Z,95817.00
2019-02-19T01:16:32.124Z,95815.00
2019-02-19T01:22:01.406Z,95814.00
2019-02-19T01:27:31.153Z,95821.00
2019-02-19T01:33:00.426Z,95819.00
2019-02-19T01:38:29.689Z,95826.00
2019-02-19T01:43:59.352Z,95819.00
2019-02-19T01:49:29.039Z,95823.00
2019-02-19T01:54:58.300Z,95810.00
2019-02-19T02:00:27.588Z,95816.00
2019-02-19T02:05:56.848Z,95816.00
2019-02-19T02:11:26.127Z,95812.00
2019-02-19T02:16:55.407Z,95815.00
2019-02-19T02:22:24.683Z,95821.00
2019-02-19T02:27:53.962Z,95819.00
2019-02-19T02:33:23.228Z,95826.00
2019-02-19T02:38:52.515Z,95818.00
2019-02-19T02:44:21.796Z,95828.00
2019-02-19T02:49:51.072Z,95830.00
2019-02-19T02:55:20.339Z,95833.00
2019-02-19T03:00:49.602Z,95838.00
2019-02-19T03:06:26.365Z,95842.00
2019-02-19T03:11:57.364Z,95840.00
2019-02-19T03:17:26.603Z,95852.00
2019-02-19T03:22:55.863Z,95867.00
2019-02-19T03:28:25.129Z,95860.00
2019-02-19T03:33:54.394Z,95861.00
2019-02-19T03:39:23.664Z,95860.00
2019-02-19T03:44:52.930Z,95878.00
2019-02-19T03:50:22.194Z,95874.00
2019-02-19T03:55:51.466Z,95881.00
2019-02-19T04:01:21.197Z,95896.00
2019-02-19T04:06:50.443Z,95894.00
2019-02-19T04:12:19.716Z,95896.00
2019-02-19T04:17:49.015Z,95898.00
2019-02-19T04:23:18.295Z,95898.00
2019-02-19T04:28:47.560Z,95896.00
2019-02-19T04:34:16.823Z,95897.00
2019-02-19T04:39:47.083Z,95909.00
2019-02-19T04:45:16.351Z,95909.00
2019-02-19T04:50:45.627Z,95914.00
2019-02-19T04:56:14.890Z,95900.00
2019-02-19T05:01:44.160Z,95894.00
2019-02-19T05:07:13.422Z,95906.00
2019-02-19T05:12:42.694Z,95904.00
2019-02-19T05:18:11.961Z,95900.00
2019-02-19T05:23:41.239Z,95910.00
2019-02-19T05:29:10.509Z,95907.00
2019-02-19T05:34:39.779Z,95909.00
2019-02-19T05:40:10.165Z,95908.00
2019-02-19T05:45:39.434Z,95912.00
2019-02-19T05:51:08.791Z,95925.00
2019-02-19T05:56:38.049Z,95933.00
2019-02-19T06:02:07.319Z,95927.00
2019-02-19T06:07:36.600Z,95932.00
2019-02-19T06:13:05.900Z,95939.00
2019-02-19T06:18:35.154Z,95934.00
2019-02-19T06:24:04.486Z,95933.00
2019-02-19T06:29:33.763Z,95936.00
2019-02-19T06:35:06.158Z,95946.00
2019-02-19T06:40:35.476Z,95947.00
2019-02-19T06:46:04.741Z,95972.00
2019-02-19T06:51:34.072Z,95964.00
2019-02-19T06:57:03.351Z,95965.00
2019-02-19T07:02:34.262Z,95979.00
2019-02-19T07:08:03.553Z,95978.00
2019-02-19T07:13:32.828Z,95981.00
2019-02-19T07:19:02.165Z,95974.00
2019-02-19T07:24:31.433Z,95975.00
2019-02-19T07:30:00.708Z,95983.00
2019-02-19T07:35:29.978Z,95987.00
2019-02-19T07:40:59.257Z,95982.00
2019-02-19T07:46:28.662Z,95982.00
2019-02-19T07:51:57.943Z,95990.00
2019-02-19T07:57:27.227Z,95996.00
2019-02-19T08:02:56.484Z,95988.00
2019-02-19T08:08:25.761Z,95984.00
2019-02-19T08:13:55.015Z,95986.00
2019-02-19T08:19:24.292Z,95982.00
2019-02-19T08:24:53.557Z,95981.00
2019-02-19T08:30:23.837Z,95990.00
2019-02-19T08:35:53.096Z,95991.00
2019-02-19T08:41:22.370Z,95991.00
2019-02-19T08:46:51.642Z,95988.00
2019-02-19T08:52:20.909Z,95987.00
2019-02-19T08:57:50.179Z,95993.00
2019-02-19T09:03:19.459Z,95988.00
2019-02-19T09:08:48.737Z,95994.00
2019-02-19T09:14:18.003Z,95991.00
2019-02-19T09:19:47.276Z,95986.00
2019-02-19T09:25:16.639Z,95997.00
2019-02-19T09:30:45.915Z,96003.00
2019-02-19T09:36:15.197Z,96005.00
2019-02-19T09:41:44.483Z,96005.00
2019-02-19T09:47:13.758Z,95999.00
2019-02-19T09:52:43.039Z,95999.00
2019-02-19T09:58:12.306Z,95993.00
2019-02-19T10:03:41.583Z,95996.00
2019-02-19T10:09:10.856Z,96003.00
2019-02-19T10:14:40.136Z,96004.00
2019-02-19T10:20:11.165Z,96008.00
2019-02-19T10:25:40.446Z,96005.00
2019-02-19T10:31:09.725Z,95998.00
2019-02-19T10:36:39.019Z,95998.00
2019-02-19T10:42:08.301Z,95996.00
2019-02-19T10:47:37.572Z,96006.00
2019-02-19T10:53:06.854Z,95989.00
2019-02-19T10:58:36.130Z,95991.00
2019-02-19T11:04:05.411Z,95993.00
2019-02-19T11:09:34.686Z,95986.00
2019-02-19T11:15:05.299Z,95981.00
2019-02-19T11:20:34.571Z,95988.00
2019-02-19T11:26:03.848Z,95984.00
2019-02-19T11:31:33.140Z,95976.00
2019-02-19T11:37:02.426Z,95985.00
2019-02-19T11:42:31.710Z,95966.00
2019-02-19T11:48:00.990Z,95982.00
2019-02-19T11:53:30.278Z,95975.00
2019-02-19T11:58:59.561Z,95970.00
2019-02-19T12:04:28.839Z,95963.00
2019-02-19T12:09:58.126Z,95967.00
2019-02-19T12:15:34.935Z,95967.00
2019-02-19T12:20:58.406Z,95966.00
2019-02-19T12:26:27.677Z,95958.00
2019-02-19T12:31:56.952Z,95953.00
2019-02-19T12:37:26.223Z,95946.00
2019-02-19T12:42:55.572Z,95948.00
2019-02-19T12:48:24.883Z,95940.00
2019-02-19T12:53:54.152Z,95930.00
2019-02-19T12:59:23.429Z,95927.00
2019-02-19T13:04:52.706Z,95922.00
2019-02-19T13:10:22.012Z,95915.00
2019-02-19T13:15:51.290Z,95917.00
2019-02-19T13:21:20.571Z,95907.00
2019-02-19T13:26:49.844Z,95916.00
2019-02-19T13:32:19.140Z,95903.00
2019-02-19T13:37:48.404Z,95912.00
2019-02-19T13:43:17.694Z,95904.00
2019-02-19T13:48:47.049Z,95898.00
2019-02-19T13:54:17.981Z,95904.00
2019-02-19T13:59:47.243Z,95909.00
2019-02-19T14:05:16.519Z,95916.00
2019-02-19T14:10:45.803Z,95909.00
2019-02-19T14:16:16.707Z,95910.00
2019-02-19T14:21:56.765Z,95922.00
2019-02-19T14:27:33.671Z,95908.00
2019-02-19T14:33:16.601Z,95915.00
2019-02-19T14:38:47.530Z,95902.00
2019-02-19T14:44:34.769Z,95878.00
2019-02-19T14:50:06.523Z,95900.00
2019-02-19T14:55:37.511Z,95914.00
2019-02-19T15:01:08.429Z,95912.00
2019-02-19T15:06:47.981Z,95915.00
2019-02-19T15:12:21.852Z,95918.00
2019-02-19T15:17:58.696Z,95909.00
2019-02-19T15:23:45.018Z,95909.00
2019-02-19T15:29:19.766Z,95901.00
2019-02-19T15:35:02.778Z,95900.00
2019-02-19T15:40:39.681Z,95895.00
2019-02-19T15:46:13.299Z,95885.00
2019-02-19T15:52:00.569Z,95897.00
2019-02-19T15:57:47.348Z,95893.00
2019-02-19T16:03:18.261Z,95884.00
2019-02-19T16:08:56.154Z,95899.00
2019-02-19T16:14:38.945Z,95897.00
2019-02-19T16:20:13.149Z,95886.00
2019-02-19T16:25:46.743Z,95891.00
2019-02-19T16:31:20.187Z,95895.00
2019-02-19T16:36:51.180Z,95896.00
2019-02-19T16:42:22.107Z,95902.00
2019-02-19T16:47:55.584Z,95898.00
2019-02-19T16:53:29.074Z,95900.00
2019-02-19T16:59:18.196Z,95905.00
2019-02-19T17:04:52.725Z,95913.00
2019-02-19T17:10:23.653Z,95908.00
2019-02-19T17:15:57.277Z,95923.00
2019-02-19T17:27:11.457Z,95931.00
2019-02-19T17:32:42.458Z,95935.00
2019-02-19T17:38:22.349Z,95939.00
2019-02-19T17:44:02.122Z,95950.00
2019-02-19T17:49:38.575Z,95949.00
2019-02-19T17:55:12.279Z,95949.00
2019-02-19T18:00:59.108Z,95952.00
2019-02-19T18:06:32.721Z,95957.00
2019-02-19T18:12:03.638Z,95961.00
2019-02-19T18:17:43.526Z,95963.00
2019-02-19T18:23:12.789Z,95965.00
2019-02-19T18:28:42.222Z,95973.00
2019-02-19T18:34:11.506Z,95970.00
2019-02-19T18:39:40.774Z,95990.00
2019-02-19T18:45:10.581Z,95998.00
2019-02-19T18:50:39.849Z,95993.00
2019-02-19T18:56:09.192Z,95985.00
2019-02-19T19:01:38.472Z,95994.00
2019-02-19T19:07:07.746Z,95999.00
2019-02-19T19:12:38.122Z,96007.00
2019-02-19T19:18:07.468Z,96026.00
2019-02-19T19:23:36.724Z,96032.00
2019-02-19T19:29:06.464Z,96024.00
2019-02-19T19:34:35.813Z,96032.00
2019-02-19T19:40:08.082Z,96026.00
2019-02-19T19:45:37.392Z,96046.00
2019-02-19T19:51:16.893Z,96042.00
2019-02-19T19:56:40.778Z,96040.00
2019-02-19T20:02:10.983Z,96043.00
2019-02-19T20:07:42.565Z,96062.00
2019-02-19T20:13:12.793Z,96070.00
2019-02-19T20:18:42.060Z,96063.00
2019-02-19T20:24:11.338Z,96064.00
2019-02-19T20:29:40.607Z,96069.00
2019-02-19T20:35:11.701Z,96065.00
2019-02-19T20:40:40.985Z,96062.00
2019-02-19T20:46:10.346Z,96078.00
2019-02-19T20:51:40.729Z,96083.00
2019-02-19T20:57:10.946Z,96086.00
2019-02-19T21:02:40.285Z,96096.00
2019-02-19T21:08:09.610Z,96094.00
2019-02-19T21:13:38.875Z,96093.00
2019-02-19T21:19:08.144Z,96087.00
2019-02-19T21:24:37.421Z,96094.00
2019-02-19T21:30:14.320Z,96096.00
2019-02-19T21:35:43.592Z,96090.00
2019-02-19T21:41:12.874Z,96098.00
2019-02-19T21:46:42.143Z,96105.00
2019-02-19T21:52:12.433Z,96115.00
2019-02-19T21:57:41.688Z,96099.00
2019-02-19T22:03:11.529Z,96102.00
2019-02-19T22:08:40.813Z,96103.00
2019-02-19T22:14:10.090Z,96111.00
2019-02-19T22:19:39.840Z,96118.00
2019-02-19T22:25:09.252Z,96110.00
2019-02-19T22:30:38.530Z,96111.00
2019-02-19T22:36:08.710Z,96109.00
2019-02-19T22:41:37.997Z,96117.00
2019-02-19T22:47:07.256Z,96099.00
2019-02-19T22:52:36.539Z,96105.00
2019-02-19T22:58:11.773Z,96110.00
2019-02-19T23:03:41.417Z,96115.00
2019-02-19T23:09:10.687Z,96120.00
2019-02-19T23:14:39.957Z,96117.00
2019-02-19T23:20:09.303Z,96133.00
2019-02-19T23:25:38.563Z,96131.00
2019-02-19T23:31:07.856Z,96132.00
2019-02-19T23:36:58.100Z,96132.00
2019-02-19T23:42:27.631Z,96133.00
2019-02-19T23:47:57.004Z,96145.00
2019-02-19T23:53:26.334Z,96133.00
2019-02-19T23:58:55.677Z,96122.00
